Woolcott, Kentucky
Current Conditions -  °F | °C
As of 3:55 AM on Thursday 23 Oct 2014 (Local Time) from KFGX Reporting Station
Overcast Overcast  
Wind Chill: 47°   Ceiling: 2800
Heat Index: 47°   Visibility: 10mi
Dew Point: 40°   Wind: 3mph
Humidity: 75%   Direction: 20°NNE
Pressure: 30.25"   Gusts: NA
Location:  38.6516°N, 84.0942°W
Report Text: KFGX 230755Z AUTO 02003KT 10SM OVC028 09/04 A3025 RMK AO2 T00850043
Loading
Personal Weather Stations






























Interactive Weather Map
Tropical Storm Tracking
New forecast layout! Learn more

10-Day Weather Forecast

Advertisements
Track Severe Weather on mobile